Queen Isabella — A8IE2 — position and weather

sailwx.info

Track history (hours):
 
Tides and Currents Weather Stations Pressure Air Temp Water Temp Dewpoint Dewpoint Depression Visibility Wind Speed Wind Dir Waves Ship Positions

Queen Isabella

Last reported at 2016-May-27 01:06 UTC. Time now 2016-May-27 06:32 UTC.
Position N 35°58' W 005°37'.

Length 130 m; draft 5.7 m.

Type: Ship. MMSI: 636090959.

Date/timePositionNaut miles runAvg speedWind from/ knotsBaromVisibWave heightAir tempDewpointWater temp
2016-May-27 01:06N 35°58' W 005°37'611.5
2016-May-27 00:34N 35°60' W 005°30'9 9.4
2016-May-26 23:34N 36°02' W 005°18'23212.2
2016-May-26 04:33N 37°24' W 000°47'1313.2
2016-May-26 03:32N 37°33' W 000°35'1413.2
2016-May-26 02:30N 37°44' W 000°25'1313.4
2016-May-26 01:32N 37°54' W 000°15'43 1.0
2016-May-24 04:30N 38°27' E 000°21'1414.2
2016-May-24 03:32N 38°13' E 000°18'1414.6
2016-May-24 02:33N 37°59' E 000°15'1414.5
2016-May-24 01:33N 37°45' E 000°12'1514.5
2016-May-24 00:33N 37°30' E 000°08'1614.4
2016-May-23 23:28N 37°15' E 000°04'1414.0
2016-May-23 22:28N 37°01' E 000°01'72 2.4
2016-May-22 16:23N 35°51' W 000°18'3 3.7
2016-May-22 15:33N 35°52' W 000°14'5 2.7
2016-May-22 13:32N 35°56' W 000°10'2 1.6
2016-May-22 12:31N 35°55' W 000°11'1 1.2
2016-May-22 11:33N 35°55' W 000°13'11 1.8
2016-May-22 05:33N 36°05' W 000°07'1 0.9
2016-May-22 04:12N 36°05' W 000°08'0 0.6
2016-May-22 03:33N 36°05' W 000°09'1 0.4
2016-May-22 01:33N 36°04' W 000°09'0 0.2
2016-May-22 00:31N 36°04' W 000°09'1 0.6
2016-May-21 23:33N 36°03' W 000°08'1 0.9
2016-May-21 22:23N 36°03' W 000°07'1 1.0
2016-May-21 21:26N 36°03' W 000°06'14 4.7
2016-May-21 18:24N 36°12' W 000°19'1 1.3
2016-May-21 17:33N 36°12' W 000°17'1 1.3
2016-May-21 16:33N 36°12' W 000°16'1 1.3
2016-May-21 15:33N 36°11' W 000°14'1 1.3
2016-May-21 14:26N 36°11' W 000°12'1 1.6
2016-May-21 13:33N 36°11' W 000°11'3 1.5
2016-May-21 11:33N 36°09' W 000°08'4 4.5
2016-May-21 10:33N 36°09' W 000°14'1211.9
2016-May-21 09:30N 36°14' W 000°28'1 0.8
2016-May-21 08:09N 36°14' W 000°27'1 1.1
2016-May-21 07:19N 36°14' W 000°26'10 1.0
2016-May-20 22:09N 36°15' W 000°14'7 0.3
2016-May-19 20:13N 36°09' W 000°10'4 3.5
2016-May-19 19:11N 36°06' W 000°13'10 8.7
2016-May-19 18:04N 35°56' W 000°14'0 0.8
2016-May-19 17:26N 35°57' W 000°13'5 0.8
2016-May-19 11:24N 36°01' W 000°13'3711.3
2016-May-19 08:08N 36°38' W 000°06'711.6
2016-May-19 07:30N 36°45' W 000°05'1111.5
2016-May-19 06:33N 36°56' W 000°02'1211.6
2016-May-19 05:33N 37°07' W 000°00'1111.5
2016-May-19 04:33N 37°18' E 000°02'1211.6
2016-May-19 03:33N 37°30' E 000°05'1211.7
2016-May-19 02:33N 37°41' E 000°07'1211.7
2016-May-19 01:33N 37°53' E 000°10'1211.6
2016-May-19 00:33N 38°04' E 000°12'1211.8
2016-May-18 23:31N 38°16' E 000°14'1111.8
2016-May-18 22:33N 38°28' E 000°15'1111.4
2016-May-18 21:33N 38°39' E 000°20'  
Track history (hours):
 
Tides and Currents Weather Stations Pressure Air Temp Water Temp Dewpoint Dewpoint Depression Visibility Wind Speed Wind Dir Waves Ship Positions

Queen Isabella

Last reported at 2016-May-27 01:06 UTC. Time now 2016-May-27 06:32 UTC.
Position N 35°58' W 005°37'.

Length 130 m; draft 5.7 m.

Type: Ship. MMSI: 636090959.

Date/timePositionNaut miles runAvg speedWind from/ knotsBaromVisibWave heightAir tempDewpointWater temp
2016-May-27 01:06N 35°58' W 005°37'611.5
2016-May-27 00:34N 35°60' W 005°30'9 9.4
2016-May-26 23:34N 36°02' W 005°18'23212.2
2016-May-26 04:33N 37°24' W 000°47'1313.2
2016-May-26 03:32N 37°33' W 000°35'1413.2
2016-May-26 02:30N 37°44' W 000°25'1313.4
2016-May-26 01:32N 37°54' W 000°15'43 1.0
2016-May-24 04:30N 38°27' E 000°21'1414.2
2016-May-24 03:32N 38°13' E 000°18'1414.6
2016-May-24 02:33N 37°59' E 000°15'1414.5
2016-May-24 01:33N 37°45' E 000°12'1514.5
2016-May-24 00:33N 37°30' E 000°08'1614.4
2016-May-23 23:28N 37°15' E 000°04'1414.0
2016-May-23 22:28N 37°01' E 000°01'72 2.4
2016-May-22 16:23N 35°51' W 000°18'3 3.7
2016-May-22 15:33N 35°52' W 000°14'5 2.7
2016-May-22 13:32N 35°56' W 000°10'2 1.6
2016-May-22 12:31N 35°55' W 000°11'1 1.2
2016-May-22 11:33N 35°55' W 000°13'11 1.8
2016-May-22 05:33N 36°05' W 000°07'1 0.9
2016-May-22 04:12N 36°05' W 000°08'0 0.6
2016-May-22 03:33N 36°05' W 000°09'1 0.4
2016-May-22 01:33N 36°04' W 000°09'0 0.2
2016-May-22 00:31N 36°04' W 000°09'1 0.6
2016-May-21 23:33N 36°03' W 000°08'1 0.9
2016-May-21 22:23N 36°03' W 000°07'1 1.0
2016-May-21 21:26N 36°03' W 000°06'14 4.7
2016-May-21 18:24N 36°12' W 000°19'1 1.3
2016-May-21 17:33N 36°12' W 000°17'1 1.3
2016-May-21 16:33N 36°12' W 000°16'1 1.3
2016-May-21 15:33N 36°11' W 000°14'1 1.3
2016-May-21 14:26N 36°11' W 000°12'1 1.6
2016-May-21 13:33N 36°11' W 000°11'3 1.5
2016-May-21 11:33N 36°09' W 000°08'4 4.5
2016-May-21 10:33N 36°09' W 000°14'1211.9
2016-May-21 09:30N 36°14' W 000°28'1 0.8
2016-May-21 08:09N 36°14' W 000°27'1 1.1
2016-May-21 07:19N 36°14' W 000°26'10 1.0
2016-May-20 22:09N 36°15' W 000°14'7 0.3
2016-May-19 20:13N 36°09' W 000°10'4 3.5
2016-May-19 19:11N 36°06' W 000°13'10 8.7
2016-May-19 18:04N 35°56' W 000°14'0 0.8
2016-May-19 17:26N 35°57' W 000°13'5 0.8
2016-May-19 11:24N 36°01' W 000°13'3711.3
2016-May-19 08:08N 36°38' W 000°06'711.6
2016-May-19 07:30N 36°45' W 000°05'1111.5
2016-May-19 06:33N 36°56' W 000°02'1211.6
2016-May-19 05:33N 37°07' W 000°00'1111.5
2016-May-19 04:33N 37°18' E 000°02'1211.6
2016-May-19 03:33N 37°30' E 000°05'1211.7
2016-May-19 02:33N 37°41' E 000°07'1211.7
2016-May-19 01:33N 37°53' E 000°10'1211.6
2016-May-19 00:33N 38°04' E 000°12'1211.8
2016-May-18 23:31N 38°16' E 000°14'1111.8
2016-May-18 22:33N 38°28' E 000°15'1111.4
2016-May-18 21:33N 38°39' E 000°20'  

Dump ship's entire track history